Details From ENRY - RYGGE
To ESGJ - Jonkoping
Flight Number -
Tags generated
Created
Modified
Stats Distance 142 nm / 263 km
Max Altitude 7,500 ft / 2,286 m
Waypoints 3
Social Downloads 1
Likes 0
Share VATSIM

Download

Looking for another format? Having issues loading an existing format? Contact us
Advertisement - Login to hide

Notes

Basic altitude profile: - Ascent Rate: 1000ft/min - Ascent Speed: 180kts - Cruise Altitude: 900ft - Cruise Speed: 250kts - Descent Rate: 2500ft/min - Descent Speed: 190kts Options: - Use NATs: yes - Use PACOTS: yes - Use low airways: yes - Use high airways: no

Route

ENRY LABAN ESGJ

ID Type Via Altitude Latitude Longitude Leg Dist Tot Dist Heading (true) Name
O ENRY APT - 0 ft / 0 m 59.37879˚ 10.78543˚ - 0 nm - RYGGE
LABAN FIX - 7,500 ft / 2,286 m 58.16939˚ 13.29431˚ 106 nm 106 nm 132° / 134° -
O ESGJ APT - 0 ft / 0 m 57.75505˚ 14.07110˚ 35 nm 141 nm 135° / 135° Jonkoping

Altitude Profile

Advertisement - Login to hide

ENRY

Details ICAO ENRY (RYG)
Name RYGGE
Region Norway
Timezone Europe/Oslo (UTC+1.0)
Stats Elevation 174 ft / 53 m (AMSL)
Location 59.378793° 10.785426°
Runways 1
Magnetic Variation 3.217° E

METAR

ENRY 120650Z AUTO 33006KT 9999NDV NCD M04/M06 Q0995

Decode

TAF

TAF TAF ENRY 120500Z 1206/1306 02012KT 9999 SCT025 BECMG 1215/1218 22007KT

Decode

Departure Runways

ID Width Length Bearing (true) Bearing (mag) Surface Threshold Offset Overrun Length
12 148 ft / 45 m 7,990 ft / 2,435 m 116.83° 113.61° Asphalt 0 ft / 0 m 898 ft / 274 m
30 148 ft / 45 m 7,990 ft / 2,435 m 296.86° 293.64° Asphalt 0 ft / 0 m 898 ft / 274 m

ESGJ

Details ICAO ESGJ (JKG)
Name Jonkoping
Region Sweden
Timezone Europe/Stockholm (UTC+1.0)
Stats Elevation 741 ft / 226 m (AMSL)
Location 57.755046° 14.071101°
Runways 2
Magnetic Variation 4.385° E

METAR

ESGJ 120650Z 02014KT 1800 -SN FEW003 BKN006 M01/M01 Q0987 R01/790129

Decode

TAF

Not found

Destination Runways

ID Width Length Bearing (true) Bearing (mag) Surface Threshold Offset Overrun Length
01 148 ft / 45 m 7,218 ft / 2,200 m 18.04° 13.66° Asphalt 0 ft / 0 m 212 ft / 65 m
11 82 ft / 25 m 1,960 ft / 598 m 114.43° 110.05° Dirt 0 ft / 0 m 0 ft / 0 m
19 148 ft / 45 m 7,218 ft / 2,200 m 198.05° 193.67° Asphalt 0 ft / 0 m 117 ft / 36 m
29 82 ft / 25 m 1,960 ft / 598 m 294.44° 290.06° Dirt 0 ft / 0 m 0 ft / 0 m

Approach Navaids

Runway Type Ident Frequency Range Bearing (true) Bearing (mag) Slope Elevation
19 Localiser SJ 109.90 MHz 18 nm / 33 km 198.03° 193.64° - 741 ft / 226 m (AMSL)
19 Glidescope SJ 109.90 MHz 10 nm / 19 km 198.04° 193.66° 3.00° 741 ft / 226 m (AMSL)